createdAt,value
2018-10-01T00:00:51.103Z,10.24
2018-10-01T00:01:51.071Z,10.25
2018-10-01T00:02:51.046Z,10.17
2018-10-01T00:03:51.025Z,10.01
2018-10-01T00:04:51.021Z,10.10
2018-10-01T00:05:51.037Z,10.09
2018-10-01T00:06:51.013Z,10.14
2018-10-01T00:07:50.996Z,10.19
2018-10-01T00:08:51.011Z,10.18
2018-10-01T00:09:50.953Z,10.15
2018-10-01T00:10:50.945Z,10.17
2018-10-01T00:11:50.969Z,10.14
2018-10-01T00:12:50.931Z,10.10
2018-10-01T00:13:50.913Z,10.10
2018-10-01T00:14:50.915Z,10.09
2018-10-01T00:15:50.892Z,10.06
2018-10-01T00:16:50.910Z,10.07
2018-10-01T00:17:50.869Z,10.01
2018-10-01T00:18:50.859Z,10.07
2018-10-01T00:19:50.905Z,10.18
2018-10-01T00:20:50.844Z,10.15
2018-10-01T00:21:50.858Z,10.03
2018-10-01T00:22:50.817Z,10.06
2018-10-01T00:23:50.801Z,10.01
2018-10-01T00:24:50.799Z,10.09
2018-10-01T00:25:50.780Z,10.01
2018-10-01T00:26:50.795Z,9.89
2018-10-01T00:27:50.767Z,9.94
2018-10-01T00:28:50.746Z,10.06
2018-10-01T00:29:50.747Z,10.01
2018-10-01T00:30:50.728Z,9.86
2018-10-01T00:31:50.743Z,9.89
2018-10-01T00:32:50.705Z,9.89
2018-10-01T00:33:50.689Z,9.91
2018-10-01T00:34:50.678Z,9.82
2018-10-01T00:35:50.668Z,10.03
2018-10-01T00:36:50.679Z,10.00
2018-10-01T00:37:50.650Z,9.91
2018-10-01T00:38:50.633Z,9.99
2018-10-01T00:39:50.646Z,10.07
2018-10-01T00:40:50.629Z,10.17
2018-10-01T00:41:50.643Z,10.18
2018-10-01T00:42:50.613Z,10.33
2018-10-01T00:43:50.581Z,10.28
2018-10-01T00:44:50.569Z,10.22
2018-10-01T00:45:50.553Z,10.17
2018-10-01T00:46:50.571Z,10.28
2018-10-01T00:47:50.554Z,10.32
2018-10-01T00:48:50.521Z,10.30
2018-10-01T00:49:50.548Z,10.42
2018-10-01T00:50:50.505Z,10.42
2018-10-01T00:51:50.510Z,10.43
2018-10-01T00:52:50.490Z,10.42
2018-10-01T00:53:50.480Z,10.46
2018-10-01T00:54:50.457Z,10.51
2018-10-01T00:55:50.450Z,10.40
2018-10-01T00:56:50.473Z,10.40
2018-10-01T00:57:50.472Z,10.40
2018-10-01T00:58:50.435Z,10.42
2018-10-01T00:59:50.403Z,10.42
2018-10-01T01:00:50.394Z,10.39
2018-10-01T01:01:50.404Z,10.34
2018-10-01T01:02:50.379Z,10.36
2018-10-01T01:03:50.351Z,10.43
2018-10-01T01:04:50.342Z,10.42
2018-10-01T01:05:50.388Z,10.40
2018-10-01T01:06:50.339Z,10.39
2018-10-01T01:07:50.326Z,10.42
2018-10-01T01:08:50.306Z,10.43
2018-10-01T01:09:50.285Z,10.47
2018-10-01T01:10:50.310Z,10.44
2018-10-01T01:11:50.313Z,10.33
2018-10-01T01:12:50.264Z,10.34
2018-10-01T01:13:50.248Z,10.36
2018-10-01T01:14:50.239Z,10.34
2018-10-01T01:15:50.239Z,10.37
2018-10-01T01:16:50.241Z,10.24
2018-10-01T01:17:50.197Z,10.14
2018-10-01T01:18:50.212Z,10.04
2018-10-01T01:19:50.185Z,10.06
2018-10-01T01:20:50.169Z,10.14
2018-10-01T01:21:50.199Z,10.22
2018-10-01T01:22:50.165Z,10.28
2018-10-01T01:23:50.134Z,10.39
2018-10-01T01:24:50.120Z,10.42
2018-10-01T01:25:50.182Z,10.39
2018-10-01T01:26:50.121Z,10.43
2018-10-01T01:27:50.107Z,10.43
2018-10-01T01:28:50.096Z,10.42
2018-10-01T01:29:50.068Z,10.33
2018-10-01T01:30:50.058Z,10.25
2018-10-01T01:31:50.071Z,10.24
2018-10-01T01:32:50.053Z,10.25
2018-10-01T01:33:50.048Z,10.28
2018-10-01T01:34:50.021Z,10.32
2018-10-01T01:35:49.997Z,10.19
2018-10-01T01:36:49.994Z,10.33
2018-10-01T01:37:50.007Z,10.36
2018-10-01T01:38:49.993Z,10.44
2018-10-01T01:39:49.949Z,10.52
2018-10-01T01:40:49.947Z,10.59
2018-10-01T01:41:50.010Z,10.66
2018-10-01T01:42:49.948Z,10.74
2018-10-01T01:43:49.920Z,10.59
2018-10-01T01:44:49.906Z,10.63
2018-10-01T01:45:49.885Z,10.62
2018-10-01T01:46:49.931Z,10.62
2018-10-01T01:47:49.889Z,10.65
2018-10-01T01:48:49.857Z,10.44
2018-10-01T01:49:49.852Z,10.51
2018-10-01T01:50:49.829Z,10.52
2018-10-01T01:51:49.829Z,10.59
2018-10-01T01:52:49.835Z,10.62
2018-10-01T01:53:49.793Z,10.66
2018-10-01T01:54:49.800Z,10.59
2018-10-01T01:55:49.777Z,10.58
2018-10-01T01:56:49.791Z,10.58
2018-10-01T01:57:49.796Z,10.44
2018-10-01T01:58:49.740Z,10.39
2018-10-01T01:59:49.755Z,10.30
2018-10-01T02:00:49.731Z,10.26
2018-10-01T02:01:49.713Z,10.26
2018-10-01T02:02:49.719Z,10.39
2018-10-01T02:03:49.688Z,10.46
2018-10-01T02:04:49.675Z,10.51
2018-10-01T02:05:49.669Z,10.66
2018-10-01T02:06:49.674Z,10.60
2018-10-01T02:07:49.672Z,10.66
2018-10-01T02:08:49.685Z,10.65
2018-10-01T02:09:49.623Z,10.71
2018-10-01T02:10:49.628Z,10.63
2018-10-01T02:11:49.596Z,10.78
2018-10-01T02:12:49.608Z,10.76
2018-10-01T02:13:49.631Z,10.71
2018-10-01T02:14:49.560Z,10.56
2018-10-01T02:15:49.560Z,10.46
2018-10-01T02:16:49.576Z,10.40
2018-10-01T02:17:49.568Z,10.62
2018-10-01T02:18:49.548Z,10.70
2018-10-01T02:19:49.506Z,10.88
2018-10-01T02:20:49.494Z,10.86
2018-10-01T02:21:49.489Z,10.83
2018-10-01T02:22:49.539Z,10.70
2018-10-01T02:23:49.459Z,10.63
2018-10-01T02:24:49.458Z,10.66
2018-10-01T02:25:49.445Z,10.76
2018-10-01T02:26:49.425Z,10.80
2018-10-01T02:27:49.445Z,10.77
2018-10-01T02:28:49.430Z,10.60
2018-10-01T02:29:49.405Z,10.65
2018-10-01T02:30:49.386Z,10.63
2018-10-01T02:31:49.368Z,10.65
2018-10-01T02:32:49.381Z,10.53
2018-10-01T02:33:49.350Z,10.59
2018-10-01T02:34:49.392Z,10.66
2018-10-01T02:35:49.366Z,10.55
2018-10-01T02:36:49.329Z,10.56
2018-10-01T02:37:49.326Z,10.59
2018-10-01T02:38:49.303Z,10.47
2018-10-01T02:39:49.351Z,10.59
2018-10-01T02:40:49.290Z,10.65
2018-10-01T02:41:49.261Z,10.68
2018-10-01T02:42:49.311Z,10.60
2018-10-01T02:43:49.248Z,10.59
2018-10-01T02:44:49.232Z,10.58
2018-10-01T02:45:49.223Z,10.62
2018-10-01T02:46:49.210Z,10.62
2018-10-01T02:47:49.368Z,10.70
2018-10-01T02:48:49.191Z,10.73
2018-10-01T02:49:49.179Z,10.70
2018-10-01T02:50:49.169Z,10.73
2018-10-01T02:51:49.165Z,10.59
2018-10-01T02:52:49.167Z,10.51
2018-10-01T02:53:49.155Z,10.46
2018-10-01T02:54:49.122Z,10.40
2018-10-01T02:55:49.104Z,10.46
2018-10-01T02:56:49.098Z,10.60
2018-10-01T02:57:49.115Z,10.44
2018-10-01T02:58:49.079Z,10.37
2018-10-01T02:59:49.081Z,10.39
2018-10-01T03:00:49.054Z,10.32
2018-10-01T03:01:49.042Z,10.37
2018-10-01T03:02:49.079Z,10.34
2018-10-01T03:03:49.045Z,10.42
2018-10-01T03:04:49.003Z,10.37
2018-10-01T03:05:49.004Z,10.32
2018-10-01T03:06:48.985Z,10.33
2018-10-01T03:07:48.966Z,10.33
2018-10-01T03:08:49.060Z,10.28
2018-10-01T03:09:48.947Z,10.30
2018-10-01T03:10:48.964Z,10.30
2018-10-01T03:11:48.944Z,10.21
2018-10-01T03:12:48.943Z,10.21
2018-10-01T03:13:48.932Z,10.21
2018-10-01T03:14:48.902Z,10.18
2018-10-01T03:15:48.913Z,10.24
2018-10-01T03:16:48.870Z,10.26
2018-10-01T03:17:48.865Z,10.36
2018-10-01T03:18:48.912Z,10.26
2018-10-01T03:19:48.839Z,10.32
2018-10-01T03:20:48.834Z,10.28
2018-10-01T03:21:48.817Z,10.34
2018-10-01T03:22:48.813Z,10.37
2018-10-01T03:23:48.818Z,10.32
2018-10-01T03:24:48.792Z,10.39
2018-10-01T03:25:48.786Z,10.34
2018-10-01T03:26:48.756Z,10.36
2018-10-01T03:27:48.757Z,10.39
2018-10-01T03:28:48.763Z,10.37
2018-10-01T03:29:48.753Z,10.33
2018-10-01T03:30:48.723Z,10.33
2018-10-01T03:31:48.707Z,10.36
2018-10-01T03:32:48.696Z,10.47
2018-10-01T03:33:48.727Z,10.46
2018-10-01T03:34:48.668Z,10.60
2018-10-01T03:35:48.665Z,10.70
2018-10-01T03:36:48.651Z,10.66
2018-10-01T03:37:48.643Z,10.65
2018-10-01T03:38:48.659Z,10.66
2018-10-01T03:39:48.620Z,10.65
2018-10-01T03:40:48.616Z,10.62
2018-10-01T03:41:48.605Z,10.52
2018-10-01T03:42:48.647Z,10.59
2018-10-01T03:43:48.601Z,10.60
2018-10-01T03:44:48.562Z,10.70
2018-10-01T03:45:48.554Z,10.62
2018-10-01T03:46:48.578Z,10.43
2018-10-01T03:47:48.542Z,10.33
2018-10-01T03:48:48.540Z,10.26
2018-10-01T03:49:48.504Z,10.26
2018-10-01T03:50:48.506Z,10.25
2018-10-01T03:51:48.489Z,10.14
2018-10-01T03:52:48.468Z,10.26
2018-10-01T03:53:48.505Z,10.15
2018-10-01T03:54:48.449Z,10.12
2018-10-01T03:55:48.444Z,10.10
2018-10-01T03:56:48.451Z,10.18
2018-10-01T03:57:48.434Z,10.19
2018-10-01T03:58:48.445Z,10.28
2018-10-01T03:59:48.394Z,10.25
2018-10-01T04:00:48.422Z,10.30
2018-10-01T04:01:48.381Z,10.32
2018-10-01T04:02:48.405Z,10.32
2018-10-01T04:03:48.376Z,10.28
2018-10-01T04:04:48.337Z,10.26
2018-10-01T04:05:48.334Z,10.32
2018-10-01T04:06:48.315Z,10.25
2018-10-01T04:07:48.351Z,10.34
2018-10-01T04:08:48.365Z,10.28
2018-10-01T04:09:48.287Z,10.34
2018-10-01T04:10:48.276Z,10.34
2018-10-01T04:11:48.263Z,10.33
2018-10-01T04:12:48.269Z,10.32
2018-10-01T04:13:48.254Z,10.24
2018-10-01T04:14:48.235Z,10.28
2018-10-01T04:15:48.218Z,10.37
2018-10-01T04:16:48.208Z,10.32
2018-10-01T04:17:48.210Z,10.28
2018-10-01T04:18:48.210Z,10.24
2018-10-01T04:19:48.185Z,10.21
2018-10-01T04:20:48.167Z,10.32
2018-10-01T04:21:48.163Z,10.24
2018-10-01T04:22:48.178Z,10.32
2018-10-01T04:23:48.149Z,10.24
2018-10-01T04:24:48.119Z,10.26
2018-10-01T04:25:48.139Z,10.32
2018-10-01T04:26:48.093Z,10.33
2018-10-01T04:27:48.082Z,10.30
2018-10-01T04:28:48.118Z,10.28
2018-10-01T04:29:48.082Z,10.26
2018-10-01T04:30:48.046Z,10.26
2018-10-01T04:31:48.055Z,10.15
2018-10-01T04:32:48.020Z,10.19
2018-10-01T04:33:48.039Z,10.26
2018-10-01T04:34:48.003Z,10.24
2018-10-01T04:35:48.020Z,10.24
2018-10-01T04:36:47.991Z,10.25
2018-10-01T04:37:47.985Z,10.32
2018-10-01T04:38:47.977Z,10.26
2018-10-01T04:39:47.951Z,10.32
2018-10-01T04:40:47.990Z,10.18
2018-10-01T04:41:47.972Z,10.07
2018-10-01T04:42:47.913Z,10.18
2018-10-01T04:43:47.965Z,10.19
2018-10-01T04:44:47.908Z,10.17
2018-10-01T04:45:47.904Z,10.14
2018-10-01T04:46:47.957Z,10.22
2018-10-01T04:47:47.854Z,10.25
2018-10-01T04:48:47.852Z,10.28
2018-10-01T04:49:47.875Z,10.18
2018-10-01T04:50:47.823Z,10.28
2018-10-01T04:51:47.821Z,10.24
2018-10-01T04:52:47.805Z,10.19
2018-10-01T04:53:47.792Z,10.15
2018-10-01T04:54:47.856Z,10.10
2018-10-01T04:55:47.772Z,10.10
2018-10-01T04:56:47.764Z,10.09
2018-10-01T04:57:47.746Z,10.12
2018-10-01T04:58:47.748Z,10.03
2018-10-01T04:59:47.758Z,10.00
2018-10-01T05:00:47.762Z,10.10
2018-10-01T05:01:47.710Z,10.12
2018-10-01T05:02:47.694Z,10.00
2018-10-01T05:03:47.692Z,10.04
2018-10-01T05:04:47.710Z,9.99
2018-10-01T05:05:47.663Z,9.91
2018-10-01T05:06:47.661Z,9.85
2018-10-01T05:07:48.363Z,10.03
2018-10-01T05:08:47.633Z,9.96
2018-10-01T05:09:47.640Z,10.03
2018-10-01T05:10:47.610Z,10.03
2018-10-01T05:11:47.608Z,10.14
2018-10-01T05:12:47.582Z,10.21
2018-10-01T05:13:47.653Z,10.17
2018-10-01T05:14:47.627Z,10.17
2018-10-01T05:15:47.547Z,10.15
2018-10-01T05:16:47.539Z,10.18
2018-10-01T05:17:47.551Z,10.32
2018-10-01T05:18:47.530Z,10.32
2018-10-01T05:19:47.528Z,10.25
2018-10-01T05:20:47.694Z,10.62
2018-10-01T05:21:47.541Z,10.88
2018-10-01T05:22:47.464Z,11.29
2018-10-01T05:23:47.483Z,11.71
2018-10-01T05:24:47.475Z,11.97
2018-10-01T05:25:47.436Z,11.82
2018-10-01T05:26:47.439Z,11.83
2018-10-01T05:27:47.427Z,11.75
2018-10-01T05:28:47.401Z,11.64
2018-10-01T05:29:47.417Z,11.57
2018-10-01T05:30:47.393Z,11.44
2018-10-01T05:31:47.390Z,11.17
2018-10-01T05:32:47.427Z,11.06
2018-10-01T05:33:47.450Z,11.02
2018-10-01T05:34:47.437Z,10.88
2018-10-01T05:35:47.348Z,10.73
2018-10-01T05:36:47.360Z,10.47
2018-10-01T05:37:47.459Z,10.44
2018-10-01T05:38:47.319Z,10.40
2018-10-01T05:39:47.304Z,10.53
2018-10-01T05:40:47.427Z,10.46
2018-10-01T05:41:47.286Z,10.56
2018-10-01T05:42:47.299Z,10.55
2018-10-01T05:43:47.240Z,10.51
2018-10-01T05:44:47.251Z,10.55
2018-10-01T05:45:47.526Z,10.52
2018-10-01T05:46:47.210Z,10.59
2018-10-01T05:48:52.765Z,10.43
2018-10-01T05:49:50.212Z,10.37
2018-10-01T05:50:49.180Z,10.34
2018-10-01T05:51:49.157Z,10.47
2018-10-01T05:52:56.155Z,10.44
2018-10-01T05:53:49.148Z,10.55
2018-10-01T05:54:57.088Z,10.44
2018-10-01T05:55:52.871Z,10.59
2018-10-01T05:56:49.071Z,10.65
2018-10-01T05:59:10.056Z,10.81
2018-10-01T06:00:09.383Z,10.83
2018-10-01T06:01:09.480Z,10.84
2018-10-01T06:02:08.542Z,10.89
2018-10-01T06:03:09.546Z,10.95
2018-10-01T06:04:08.566Z,10.99
2018-10-01T06:05:11.456Z,11.01
2018-10-01T06:06:08.509Z,11.09
2018-10-01T06:07:08.486Z,10.99
2018-10-01T06:08:09.625Z,10.99
2018-10-01T06:09:09.200Z,11.03
2018-10-01T06:10:09.975Z,10.96
2018-10-01T06:11:08.681Z,10.89
2018-10-01T06:12:12.117Z,10.83
2018-10-01T06:13:09.473Z,10.86
2018-10-01T06:14:11.039Z,10.77
2018-10-01T06:15:08.558Z,10.65
2018-10-01T06:16:08.500Z,10.62
2018-10-01T06:17:08.469Z,10.56
2018-10-01T06:18:08.846Z,10.46
2018-10-01T06:19:10.846Z,10.53
2018-10-01T06:20:13.942Z,10.62
2018-10-01T06:21:08.899Z,10.55
2018-10-01T06:22:09.008Z,10.70
2018-10-01T06:23:11.269Z,10.59
2018-10-01T06:24:10.543Z,10.51
2018-10-01T06:25:16.545Z,10.52
2018-10-01T06:26:08.592Z,10.44
2018-10-01T06:27:27.721Z,10.30
2018-10-01T06:43:13.059Z,10.65
2018-10-01T06:44:49.283Z,10.47
2018-10-01T06:45:52.220Z,10.33
2018-10-01T06:47:28.994Z,10.47
2018-10-01T06:48:50.926Z,10.59
2018-10-01T06:49:16.514Z,10.70
2018-10-01T06:50:18.846Z,10.74
2018-10-01T06:51:17.794Z,10.70
2018-10-01T06:54:04.057Z,10.62
2018-10-01T06:54:32.791Z,10.55
2018-10-01T06:55:32.798Z,10.46
2018-10-01T06:56:32.929Z,10.47
2018-10-01T06:57:32.751Z,10.51
2018-10-01T06:58:32.739Z,10.36
2018-10-01T06:59:32.765Z,10.47
2018-10-01T07:00:32.750Z,10.46
2018-10-01T07:01:32.721Z,10.46
2018-10-01T07:02:32.699Z,10.56
2018-10-01T07:03:32.689Z,10.51
2018-10-01T07:04:32.749Z,10.56
2018-10-01T07:05:32.771Z,10.46
2018-10-01T07:06:32.665Z,10.52
2018-10-01T07:07:32.656Z,10.60
2018-10-01T07:08:32.673Z,10.66
2018-10-01T07:09:32.620Z,10.66
2018-10-01T07:10:32.688Z,10.76
2018-10-01T07:11:32.674Z,10.65
2018-10-01T07:12:32.591Z,10.71
2018-10-01T07:13:32.579Z,10.80
2018-10-01T07:14:32.562Z,10.71
2018-10-01T07:15:34.573Z,10.70
2018-10-01T07:16:32.643Z,10.73
2018-10-01T07:17:32.726Z,10.66
2018-10-01T07:18:32.521Z,10.63
2018-10-01T07:19:32.521Z,10.66
2018-10-01T07:20:32.515Z,10.73
2018-10-01T07:21:32.485Z,10.80
2018-10-01T07:22:32.563Z,10.84
2018-10-01T07:23:32.467Z,10.86
2018-10-01T07:24:32.450Z,10.88
2018-10-01T07:25:32.461Z,10.84
2018-10-01T07:26:32.434Z,10.81
2018-10-01T07:27:32.446Z,10.83
2018-10-01T07:28:32.404Z,10.89
2018-10-01T07:29:32.396Z,10.86
2018-10-01T07:30:32.421Z,10.91
2018-10-01T07:31:32.376Z,10.86
2018-10-01T07:32:32.390Z,10.89
2018-10-01T07:33:32.353Z,10.86
2018-10-01T07:34:32.339Z,10.73
2018-10-01T07:35:32.501Z,10.78
2018-10-01T07:36:32.319Z,10.81
2018-10-01T07:37:32.309Z,10.77
2018-10-01T07:38:32.292Z,10.77
2018-10-01T07:39:32.321Z,10.76
2018-10-01T07:40:33.255Z,10.89
2018-10-01T07:41:32.258Z,10.92
2018-10-01T07:42:32.248Z,10.91
2018-10-01T07:43:32.237Z,10.77
2018-10-01T07:44:32.303Z,10.66
2018-10-01T07:45:32.252Z,10.60
2018-10-01T07:46:32.224Z,10.66
2018-10-01T07:47:32.197Z,10.51
2018-10-01T07:48:33.163Z,10.53
2018-10-01T07:49:32.171Z,10.55
2018-10-01T07:50:32.368Z,10.70
2018-10-01T07:51:32.158Z,10.70
2018-10-01T07:52:32.231Z,10.70
2018-10-01T07:53:32.199Z,10.80
2018-10-01T07:54:32.119Z,10.65
2018-10-01T07:55:32.121Z,10.62
2018-10-01T07:56:32.828Z,10.71
2018-10-01T07:57:32.179Z,10.74
2018-10-01T07:58:32.088Z,10.71
2018-10-01T07:59:32.128Z,10.74
2018-10-01T08:00:32.046Z,10.70
2018-10-01T08:01:32.060Z,10.58
2018-10-01T08:02:32.111Z,10.68
2018-10-01T08:03:32.037Z,10.66
2018-10-01T08:04:32.001Z,10.59
2018-10-01T08:05:31.994Z,10.52
2018-10-01T08:06:32.008Z,10.58
2018-10-01T08:07:31.995Z,10.71
2018-10-01T08:08:32.023Z,10.63
2018-10-01T08:09:32.066Z,10.71
2018-10-01T08:10:31.933Z,10.77
2018-10-01T08:11:31.968Z,10.77
2018-10-01T08:12:31.916Z,10.65
2018-10-01T08:13:31.911Z,10.65
2018-10-01T08:14:31.918Z,10.58
2018-10-01T08:15:31.890Z,10.56
2018-10-01T08:16:31.897Z,10.59
2018-10-01T08:17:31.856Z,10.60
2018-10-01T08:18:31.876Z,10.66
2018-10-01T08:19:31.845Z,10.81
2018-10-01T08:20:31.867Z,10.78
2018-10-01T08:21:31.844Z,10.81
2018-10-01T08:22:31.811Z,10.84
2018-10-01T08:23:31.821Z,10.88
2018-10-01T08:24:31.782Z,10.88
2018-10-01T08:25:31.789Z,10.83
2018-10-01T08:26:31.819Z,10.98
2018-10-01T08:27:31.750Z,10.89
2018-10-01T08:28:31.771Z,10.99
2018-10-01T08:29:31.757Z,10.98
2018-10-01T08:30:31.718Z,11.10
2018-10-01T08:31:31.740Z,11.06
2018-10-01T08:32:31.787Z,11.14
2018-10-01T08:33:31.750Z,11.24
2018-10-01T08:34:31.681Z,11.20
2018-10-01T08:35:31.762Z,11.19
2018-10-01T08:36:31.669Z,11.21
2018-10-01T08:37:31.637Z,11.21
2018-10-01T08:38:31.744Z,11.28
2018-10-01T08:39:31.795Z,11.27
2018-10-01T08:40:31.597Z,11.39
2018-10-01T08:41:31.666Z,11.43
2018-10-01T08:42:31.590Z,11.56
2018-10-01T08:43:31.588Z,11.52
2018-10-01T08:44:31.592Z,11.43
2018-10-01T08:45:31.554Z,11.54
2018-10-01T08:46:31.723Z,11.52
2018-10-01T08:47:31.672Z,11.53
2018-10-01T08:48:31.511Z,11.56
2018-10-01T08:49:31.507Z,11.54
2018-10-01T08:50:31.550Z,11.61
2018-10-01T08:51:31.565Z,11.61
2018-10-01T08:52:31.518Z,11.71
2018-10-01T08:53:31.585Z,11.75
2018-10-01T08:54:31.443Z,11.68
2018-10-01T08:55:31.488Z,11.85
2018-10-01T08:56:31.464Z,11.86
2018-10-01T08:57:31.432Z,11.99
2018-10-01T08:58:31.463Z,12.02
2018-10-01T08:59:31.501Z,12.01
2018-10-01T09:00:31.388Z,12.02
2018-10-01T09:01:31.406Z,12.06
2018-10-01T09:02:31.461Z,11.96
2018-10-01T09:03:31.346Z,12.05
2018-10-01T09:04:31.330Z,12.13
2018-10-01T09:05:31.412Z,12.06
2018-10-01T09:06:31.333Z,12.09
2018-10-01T09:07:31.325Z,12.05
2018-10-01T09:08:31.345Z,11.87
2018-10-01T09:09:31.342Z,11.78
2018-10-01T09:10:31.279Z,11.85
2018-10-01T09:11:31.308Z,11.99
2018-10-01T09:12:31.258Z,12.05
2018-10-01T09:13:31.287Z,12.19
2018-10-01T09:14:31.265Z,12.31
2018-10-01T09:15:31.220Z,12.46
2018-10-01T09:16:31.283Z,12.64
2018-10-01T09:17:31.284Z,12.74
2018-10-01T09:18:31.174Z,12.79
2018-10-01T09:19:31.167Z,12.87
2018-10-01T09:20:31.223Z,13.09
2018-10-01T09:21:31.417Z,13.17
2018-10-01T09:22:31.173Z,13.20
2018-10-01T09:23:31.207Z,13.07
2018-10-01T09:24:31.116Z,13.03
2018-10-01T09:25:31.107Z,12.95
2018-10-01T09:26:31.257Z,12.88
2018-10-01T09:27:31.077Z,12.75
2018-10-01T09:28:31.077Z,12.63
2018-10-01T09:29:31.245Z,12.66
2018-10-01T09:30:31.054Z,12.44
2018-10-01T09:31:31.068Z,12.31
2018-10-01T09:32:31.043Z,12.33
2018-10-01T09:33:31.016Z,12.30
2018-10-01T09:34:31.149Z,12.29
2018-10-01T09:35:31.043Z,12.31
2018-10-01T09:36:30.982Z,12.37
2018-10-01T09:37:31.007Z,12.26
2018-10-01T09:38:31.020Z,12.41
2018-10-01T09:39:30.946Z,12.49
2018-10-01T09:40:30.975Z,12.54
2018-10-01T09:41:30.923Z,12.52
2018-10-01T09:42:30.928Z,12.52
2018-10-01T09:43:31.012Z,12.63
2018-10-01T09:44:30.978Z,12.57
2018-10-01T09:45:30.874Z,12.56
2018-10-01T09:46:30.966Z,12.37
2018-10-01T09:47:30.902Z,12.20
2018-10-01T09:48:30.853Z,12.23
2018-10-01T09:49:30.848Z,12.16
2018-10-01T09:50:30.886Z,12.15
2018-10-01T09:51:30.825Z,12.21
2018-10-01T09:52:30.939Z,12.24
2018-10-01T09:53:30.791Z,12.34
2018-10-01T09:54:30.778Z,12.52
2018-10-01T09:55:30.764Z,12.56
2018-10-01T09:56:30.845Z,12.69
2018-10-01T09:57:30.788Z,12.74
2018-10-01T09:58:30.834Z,12.78
2018-10-01T09:59:30.728Z,12.88
2018-10-01T10:00:30.710Z,12.70
2018-10-01T10:01:30.720Z,12.63
2018-10-01T10:02:30.718Z,12.54
2018-10-01T10:03:30.710Z,12.42
2018-10-01T10:04:30.693Z,12.51
2018-10-01T10:05:30.651Z,12.46
2018-10-01T10:06:30.653Z,12.46
2018-10-01T10:07:30.654Z,12.52
2018-10-01T10:08:30.649Z,12.56
2018-10-01T10:09:30.607Z,12.48
2018-10-01T10:10:30.648Z,12.45
2018-10-01T10:11:30.695Z,12.48
2018-10-01T10:12:30.599Z,12.54
2018-10-01T10:13:30.595Z,12.57
2018-10-01T10:14:30.678Z,12.48
2018-10-01T10:15:30.589Z,12.62
2018-10-01T10:16:30.676Z,12.70
2018-10-01T10:17:30.548Z,12.89
2018-10-01T10:18:30.510Z,12.92
2018-10-01T10:19:30.497Z,12.93
2018-10-01T10:20:30.563Z,12.89
2018-10-01T10:21:30.476Z,12.95
2018-10-01T10:22:30.505Z,13.02
2018-10-01T10:23:30.476Z,13.12
2018-10-01T10:24:30.440Z,13.15
2018-10-01T10:25:30.430Z,13.29
2018-10-01T10:26:30.495Z,13.36
2018-10-01T10:27:30.428Z,13.24
2018-10-01T10:28:30.424Z,13.27
2018-10-01T10:29:30.385Z,13.36
2018-10-01T10:30:30.373Z,13.30
2018-10-01T10:31:30.363Z,13.24
2018-10-01T10:32:30.379Z,13.25
2018-10-01T10:33:30.340Z,13.32
2018-10-01T10:34:30.413Z,13.44
2018-10-01T10:35:30.370Z,13.47
2018-10-01T10:36:30.312Z,13.56
2018-10-01T10:37:30.317Z,13.67
2018-10-01T10:38:30.332Z,13.67
2018-10-01T10:39:30.305Z,13.56
2018-10-01T10:40:30.275Z,13.74
2018-10-01T10:41:30.254Z,13.55
2018-10-01T10:42:30.270Z,13.52
2018-10-01T10:43:30.231Z,13.30
2018-10-01T10:44:30.231Z,13.17
2018-10-01T10:45:30.342Z,13.04
2018-10-01T10:46:30.198Z,13.06
2018-10-01T10:47:30.218Z,13.11
2018-10-01T10:48:30.191Z,13.21
2018-10-01T10:49:30.166Z,13.36
2018-10-01T10:50:30.287Z,13.51
2018-10-01T10:51:30.142Z,13.51
2018-10-01T10:52:31.020Z,13.54
2018-10-01T10:53:30.126Z,13.73
2018-10-01T10:54:30.112Z,13.71
2018-10-01T10:55:30.102Z,13.76
2018-10-01T10:56:30.099Z,13.70
2018-10-01T10:57:30.104Z,13.69
2018-10-01T10:58:30.065Z,13.47
2018-10-01T10:59:30.055Z,13.12
2018-10-01T11:00:30.045Z,13.07
2018-10-01T11:01:30.062Z,12.78
2018-10-01T11:02:30.139Z,12.67
2018-10-01T11:03:30.012Z,12.67
2018-10-01T11:04:30.004Z,12.70
2018-10-01T11:05:30.028Z,12.62
2018-10-01T11:06:29.980Z,12.69
2018-10-01T11:07:30.001Z,12.59
2018-10-01T11:08:29.965Z,12.66
2018-10-01T11:09:29.951Z,12.42
2018-10-01T11:10:29.933Z,12.29
2018-10-01T11:11:29.936Z,12.31
2018-10-01T11:12:29.911Z,12.23
2018-10-01T11:13:29.921Z,12.39
2018-10-01T11:14:29.984Z,12.37
2018-10-01T11:15:30.000Z,12.45
2018-10-01T11:16:29.872Z,12.57
2018-10-01T11:17:29.883Z,12.67
2018-10-01T11:18:29.907Z,12.56
2018-10-01T11:19:29.859Z,12.48
2018-10-01T11:20:29.912Z,12.45
2018-10-01T11:21:29.978Z,12.56
2018-10-01T11:22:29.806Z,12.57
2018-10-01T11:23:29.812Z,12.69
2018-10-01T11:24:29.839Z,12.77
2018-10-01T11:25:29.853Z,12.92
2018-10-01T11:26:29.773Z,12.88
2018-10-01T11:27:29.761Z,13.03
2018-10-01T11:28:29.754Z,13.18
2018-10-01T11:29:29.723Z,13.25
2018-10-01T11:30:29.721Z,13.27
2018-10-01T11:31:29.769Z,13.36
2018-10-01T11:32:29.689Z,13.38
2018-10-01T11:33:29.742Z,13.38
2018-10-01T11:34:30.132Z,13.33
2018-10-01T11:35:29.671Z,13.33
2018-10-01T11:36:29.646Z,13.25
2018-10-01T11:37:29.655Z,13.22
2018-10-01T11:38:29.647Z,13.33
2018-10-01T11:39:29.626Z,13.44
2018-10-01T11:40:29.605Z,13.46
2018-10-01T11:41:29.603Z,13.54
2018-10-01T11:42:29.611Z,13.61
2018-10-01T11:43:29.662Z,13.73
2018-10-01T11:44:29.558Z,13.70
2018-10-01T11:45:29.561Z,13.62
2018-10-01T11:46:29.571Z,13.56
2018-10-01T11:47:29.532Z,13.67
2018-10-01T11:48:29.537Z,13.61
2018-10-01T11:49:29.521Z,13.22
2018-10-01T11:50:29.508Z,13.11
2018-10-01T11:51:29.505Z,12.79
2018-10-01T11:52:29.501Z,12.33
2018-10-01T11:53:29.483Z,11.99
2018-10-01T11:54:29.528Z,11.72
2018-10-01T11:55:29.444Z,11.56
2018-10-01T11:56:29.427Z,11.25
2018-10-01T11:57:29.496Z,11.21
2018-10-01T11:58:29.424Z,11.14
2018-10-01T11:59:29.393Z,11.25
2018-10-01T12:00:29.402Z,11.44
2018-10-01T12:01:29.370Z,11.70
2018-10-01T12:02:29.361Z,11.72
2018-10-01T12:03:29.629Z,11.83
2018-10-01T12:04:29.391Z,11.83
2018-10-01T12:05:29.345Z,11.83
2018-10-01T12:06:29.374Z,11.80
2018-10-01T12:07:29.313Z,11.83
2018-10-01T12:08:29.326Z,11.90
2018-10-01T12:09:29.313Z,12.06
2018-10-01T12:10:29.289Z,12.31
2018-10-01T12:11:29.376Z,12.60
2018-10-01T12:12:29.249Z,12.59
2018-10-01T12:13:29.265Z,12.66
2018-10-01T12:14:29.233Z,12.64
2018-10-01T12:15:29.311Z,12.77
2018-10-01T12:16:29.205Z,12.71
2018-10-01T12:17:29.200Z,12.92
2018-10-01T12:18:29.226Z,13.02
2018-10-01T12:19:29.184Z,13.06
2018-10-01T12:20:29.205Z,13.02
2018-10-01T12:21:29.207Z,13.02
2018-10-01T12:22:29.278Z,12.95
2018-10-01T12:23:29.152Z,12.54
2018-10-01T12:24:29.125Z,12.09
2018-10-01T12:25:29.110Z,11.64
2018-10-01T12:26:29.112Z,11.43
2018-10-01T12:27:29.126Z,11.25
2018-10-01T12:28:29.110Z,11.06
2018-10-01T12:29:29.062Z,10.66
2018-10-01T12:30:29.058Z,10.36
2018-10-01T12:31:29.072Z,10.15
2018-10-01T12:32:29.038Z,10.01
2018-10-01T12:33:29.063Z,9.93
2018-10-01T12:34:29.009Z,9.85
2018-10-01T12:35:29.054Z,9.82
2018-10-01T12:36:29.025Z,9.68
2018-10-01T12:37:28.980Z,9.58
2018-10-01T12:38:29.042Z,9.64
2018-10-01T12:39:28.962Z,9.70
2018-10-01T12:40:28.947Z,9.61
2018-10-01T12:41:28.929Z,9.70
2018-10-01T12:42:28.921Z,9.61
2018-10-01T12:43:28.929Z,9.64
2018-10-01T12:44:29.094Z,9.56
2018-10-01T12:45:28.926Z,9.57
2018-10-01T12:46:28.879Z,9.61
2018-10-01T12:47:28.879Z,9.70
2018-10-01T12:48:28.882Z,9.71
2018-10-01T12:49:28.844Z,9.71
2018-10-01T12:50:28.845Z,9.79
2018-10-01T12:51:28.891Z,9.78
2018-10-01T12:52:28.816Z,9.93
2018-10-01T12:53:28.835Z,9.93
2018-10-01T12:54:28.802Z,9.86
2018-10-01T12:55:28.775Z,9.83
2018-10-01T12:56:28.766Z,10.04
2018-10-01T12:57:28.772Z,10.06
2018-10-01T12:58:28.970Z,10.06
2018-10-01T12:59:28.767Z,9.99
2018-10-01T13:00:28.714Z,10.00
2018-10-01T13:01:28.710Z,10.09
2018-10-01T13:02:28.697Z,10.07
2018-10-01T13:03:28.696Z,10.18
2018-10-01T13:04:28.699Z,10.32
2018-10-01T13:05:28.665Z,10.30
2018-10-01T13:06:28.734Z,10.28
2018-10-01T13:07:28.645Z,10.32
2018-10-01T13:08:28.642Z,10.25
2018-10-01T13:09:28.642Z,10.33
2018-10-01T13:10:28.620Z,10.40
2018-10-01T13:11:28.601Z,10.52
2018-10-01T13:12:28.610Z,10.47
2018-10-01T13:13:28.574Z,10.56